createdAt,value
2019-05-25T00:00:30.082Z,96962.48
2019-05-25T00:02:59.577Z,96959.81
2019-05-25T00:05:29.229Z,96961.52
2019-05-25T00:07:58.686Z,96963.03
2019-05-25T00:10:28.218Z,96957.05
2019-05-25T00:12:57.705Z,96954.06
2019-05-25T00:15:27.328Z,96954.25
2019-05-25T00:17:56.794Z,96952.63
2019-05-25T00:20:26.236Z,96945.46
2019-05-25T00:22:55.722Z,96951.98
2019-05-25T00:25:25.127Z,96953.67
2019-05-25T00:27:54.538Z,96951.70
2019-05-25T00:30:23.987Z,96959.55
2019-05-25T00:32:53.361Z,96955.73
2019-05-25T00:35:22.755Z,96957.54
2019-05-25T00:37:52.140Z,96958.08
2019-05-25T00:40:21.590Z,96966.91
2019-05-25T00:42:50.971Z,96968.23
2019-05-25T00:45:20.397Z,96968.09
2019-05-25T00:47:49.797Z,96966.11
2019-05-25T00:50:19.248Z,96965.61
2019-05-25T00:52:48.618Z,96967.30
2019-05-25T00:55:17.971Z,96963.80
2019-05-25T00:57:47.448Z,96964.99
2019-05-25T01:00:17.777Z,96964.99
2019-05-25T01:02:47.165Z,96962.72
2019-05-25T01:05:16.682Z,96965.92
2019-05-25T01:07:46.133Z,96963.80
2019-05-25T01:10:15.784Z,96970.81
2019-05-25T01:12:45.224Z,96966.20
2019-05-25T01:15:16.500Z,96967.91
2019-05-25T01:17:45.936Z,96964.59
2019-05-25T01:20:15.682Z,96959.63
2019-05-25T01:22:45.152Z,96961.97
2019-05-25T01:25:14.797Z,96957.82
2019-05-25T01:27:44.233Z,96958.35
2019-05-25T01:30:14.350Z,96968.50
2019-05-25T01:32:43.801Z,96963.38
2019-05-25T01:35:13.333Z,96970.36
2019-05-25T01:37:42.734Z,96971.52
2019-05-25T01:40:12.657Z,96972.88
2019-05-25T01:42:42.036Z,96964.21
2019-05-25T01:45:11.720Z,96973.55
2019-05-25T01:47:41.124Z,96969.09
2019-05-25T01:50:10.707Z,96963.11
2019-05-25T01:52:40.174Z,96964.97
2019-05-25T01:55:09.655Z,96963.81
2019-05-25T01:57:39.092Z,96960.50
2019-05-25T02:00:10.022Z,96954.02
2019-05-25T02:02:39.547Z,96959.16
2019-05-25T02:05:09.098Z,96961.17
2019-05-25T02:07:38.537Z,96947.22
2019-05-25T02:10:08.069Z,96953.20
2019-05-25T02:12:37.513Z,96954.36
2019-05-25T02:15:07.489Z,96959.01
2019-05-25T02:17:36.921Z,96958.68
2019-05-25T02:20:06.576Z,96959.20
2019-05-25T02:22:36.108Z,96957.88
2019-05-25T02:25:16.964Z,96961.04
2019-05-25T02:27:37.215Z,96958.55
2019-05-25T02:30:06.810Z,96955.06
2019-05-25T02:32:36.274Z,96959.41
2019-05-25T02:35:06.276Z,96963.06
2019-05-25T02:37:35.741Z,96962.41
2019-05-25T02:40:05.955Z,96961.91
2019-05-25T02:42:35.418Z,96956.77
2019-05-25T02:45:05.477Z,96958.27
2019-05-25T02:47:34.940Z,96957.45
2019-05-25T02:50:04.660Z,96958.46
2019-05-25T02:52:34.119Z,96950.98
2019-05-25T02:55:03.838Z,96956.98
2019-05-25T02:57:33.269Z,96962.47
2019-05-25T03:00:02.801Z,96962.97
2019-05-25T03:02:32.180Z,96964.80
2019-05-25T03:05:01.665Z,96965.48
2019-05-25T03:07:31.072Z,96964.15
2019-05-25T03:10:00.940Z,96966.19
2019-05-25T03:12:30.977Z,96957.55
2019-05-25T03:15:00.455Z,96956.56
2019-05-25T03:17:29.963Z,96960.55
2019-05-25T03:19:59.444Z,96958.39
2019-05-25T03:22:28.824Z,96954.58
2019-05-25T03:24:58.214Z,96957.56
2019-05-25T03:27:27.606Z,96954.42
2019-05-25T03:29:57.077Z,96956.42
2019-05-25T03:32:26.550Z,96960.27
2019-05-25T03:34:56.012Z,96959.12
2019-05-25T03:37:25.390Z,96957.44
2019-05-25T03:39:54.815Z,96953.78
2019-05-25T03:42:24.199Z,96955.28
2019-05-25T03:44:53.596Z,96955.78
2019-05-25T03:47:23.169Z,96958.29
2019-05-25T03:49:52.648Z,96956.62
2019-05-25T03:52:22.131Z,96958.13
2019-05-25T03:54:51.639Z,96957.47
2019-05-25T03:57:21.017Z,96960.79
2019-05-25T03:59:50.390Z,96961.96
2019-05-25T04:02:19.794Z,96961.46
2019-05-25T04:04:49.234Z,96961.80
2019-05-25T04:07:18.698Z,96965.63
2019-05-25T04:09:48.075Z,96961.80
2019-05-25T04:12:17.475Z,96964.63
2019-05-25T04:14:46.922Z,96970.78
2019-05-25T04:17:16.412Z,96974.11
2019-05-25T04:19:45.952Z,96970.62
2019-05-25T04:22:15.405Z,96981.93
2019-05-25T04:24:44.790Z,96984.09
2019-05-25T04:27:14.274Z,96987.91
2019-05-25T04:29:43.737Z,96989.56
2019-05-25T04:32:13.140Z,96991.06
2019-05-25T04:34:42.512Z,96986.59
2019-05-25T04:37:11.907Z,96990.42
2019-05-25T04:39:41.311Z,96983.45
2019-05-25T04:42:10.711Z,96987.78
2019-05-25T04:44:40.078Z,96985.61
2019-05-25T04:47:09.530Z,96985.77
2019-05-25T04:49:38.993Z,96989.92
2019-05-25T04:52:08.412Z,96984.26
2019-05-25T04:54:37.831Z,96985.75
2019-05-25T04:57:07.431Z,96986.09
2019-05-25T04:59:36.886Z,96987.91
2019-05-25T05:02:06.374Z,96993.88
2019-05-25T05:04:35.751Z,96996.88
2019-05-25T05:07:05.325Z,96997.54
2019-05-25T05:09:34.717Z,96995.91
2019-05-25T05:12:04.189Z,96998.75
2019-05-25T05:14:33.557Z,97000.45
2019-05-25T05:17:03.092Z,96994.80
2019-05-25T05:19:32.519Z,96990.44
2019-05-25T05:22:05.541Z,96988.43
2019-05-25T05:24:32.978Z,96992.09
2019-05-25T05:27:02.380Z,96990.45
2019-05-25T05:29:31.752Z,96990.77
2019-05-25T05:32:01.189Z,96995.08
2019-05-25T05:34:30.747Z,97002.21
2019-05-25T05:37:01.696Z,97005.03
2019-05-25T05:39:31.838Z,97000.53
2019-05-25T05:42:01.501Z,97003.02
2019-05-25T05:44:32.368Z,97014.49
2019-05-25T05:47:03.180Z,97010.84
2019-05-25T05:49:32.638Z,97022.16
2019-05-25T05:52:03.855Z,97023.49
2019-05-25T05:54:33.319Z,97015.19
2019-05-25T05:57:11.948Z,97026.95
2019-05-25T05:59:33.863Z,97013.53
2019-05-25T06:02:03.466Z,97020.34
2019-05-25T06:04:32.840Z,97024.95
2019-05-25T06:07:02.274Z,97020.46
2019-05-25T06:09:31.645Z,97019.62
2019-05-25T06:12:01.014Z,97018.79
2019-05-25T06:14:30.474Z,97013.63
2019-05-25T06:16:59.959Z,97023.93
2019-05-25T06:19:29.495Z,97018.61
2019-05-25T06:21:59.216Z,97017.77
2019-05-25T06:24:28.754Z,97014.94
2019-05-25T06:26:58.165Z,97015.28
2019-05-25T06:29:27.742Z,97017.77
2019-05-25T06:31:57.170Z,97023.91
2019-05-25T06:34:26.861Z,97022.73
2019-05-25T06:36:56.281Z,97030.55
2019-05-25T06:39:25.776Z,97036.86
2019-05-25T06:41:55.269Z,97027.55
2019-05-25T06:44:24.802Z,97035.84
2019-05-25T06:46:54.259Z,97031.66
2019-05-25T06:49:23.736Z,97034.63
2019-05-25T06:51:53.114Z,97036.80
2019-05-25T06:54:22.551Z,97031.66
2019-05-25T06:56:52.700Z,97036.77
2019-05-25T06:59:22.262Z,97034.95
2019-05-25T07:01:51.758Z,97040.08
2019-05-25T07:04:21.286Z,97038.09
2019-05-25T07:06:50.759Z,97040.94
2019-05-25T07:09:20.317Z,97040.44
2019-05-25T07:11:49.780Z,97039.27
2019-05-25T07:14:19.381Z,97032.77
2019-05-25T07:16:51.319Z,97041.38
2019-05-25T07:19:22.949Z,97040.38
2019-05-25T07:21:52.714Z,97045.00
2019-05-25T07:24:22.308Z,97046.04
2019-05-25T07:26:52.604Z,97049.53
2019-05-25T07:29:22.524Z,97044.17
2019-05-25T07:31:52.257Z,97051.30
2019-05-25T07:34:23.176Z,97044.61
2019-05-25T07:36:53.389Z,97048.47
2019-05-25T07:39:23.101Z,97049.13
2019-05-25T07:41:52.590Z,97047.97
2019-05-25T07:44:22.889Z,97051.59
2019-05-25T07:46:52.260Z,97052.42
2019-05-25T07:49:21.692Z,97049.56
2019-05-25T07:51:51.136Z,97054.36
2019-05-25T07:54:20.813Z,97042.55
2019-05-25T07:56:51.675Z,97052.66
2019-05-25T07:59:21.292Z,97048.44
2019-05-25T08:01:50.764Z,97052.25
2019-05-25T08:04:20.300Z,97054.39
2019-05-25T08:06:49.854Z,97046.22
2019-05-25T08:09:19.287Z,97052.52
2019-05-25T08:11:48.732Z,97047.97
2019-05-25T08:14:18.272Z,97054.25
2019-05-25T08:16:47.783Z,97047.00
2019-05-25T08:19:17.586Z,97053.16
2019-05-25T08:21:47.125Z,97051.17
2019-05-25T08:24:16.748Z,97053.30
2019-05-25T08:26:46.329Z,97056.66
2019-05-25T08:29:15.822Z,97059.19
2019-05-25T08:31:45.301Z,97054.83
2019-05-25T08:34:14.790Z,97056.41
2019-05-25T08:36:44.329Z,97055.26
2019-05-25T08:39:13.856Z,97060.41
2019-05-25T08:41:45.615Z,97059.91
2019-05-25T08:44:14.653Z,97061.75
2019-05-25T08:46:44.172Z,97061.85
2019-05-25T08:49:13.854Z,97058.72
2019-05-25T08:51:43.409Z,97059.22
2019-05-25T08:54:12.867Z,97057.34
2019-05-25T08:56:44.825Z,97056.80
2019-05-25T08:59:14.278Z,97053.91
2019-05-25T09:01:43.895Z,97056.72
2019-05-25T09:04:13.513Z,97057.18
2019-05-25T09:06:43.118Z,97055.80
2019-05-25T09:09:12.732Z,97058.78
2019-05-25T09:11:42.225Z,97056.16
2019-05-25T09:14:11.842Z,97055.56
2019-05-25T09:16:41.289Z,97060.26
2019-05-25T09:19:10.798Z,97058.23
2019-05-25T09:21:40.322Z,97057.99
2019-05-25T09:24:09.875Z,97069.30
2019-05-25T09:26:39.390Z,97067.74
2019-05-25T09:29:09.063Z,97069.30
2019-05-25T09:31:40.493Z,97065.55
2019-05-25T09:34:09.949Z,97065.09
2019-05-25T09:36:40.089Z,97067.90
2019-05-25T09:39:09.674Z,97069.80
2019-05-25T09:41:39.135Z,97072.29
2019-05-25T09:44:12.676Z,97070.56
2019-05-25T09:46:42.118Z,97066.70
2019-05-25T09:49:11.705Z,97067.45
2019-05-25T09:51:41.160Z,97074.08
2019-05-25T09:54:10.695Z,97069.81
2019-05-25T09:56:40.233Z,97062.16
2019-05-25T09:59:19.653Z,97060.64
2019-05-25T10:01:41.004Z,97055.99
2019-05-25T10:04:10.482Z,97056.36
2019-05-25T10:06:39.954Z,97054.66
2019-05-25T10:09:09.566Z,97055.80
2019-05-25T10:11:39.030Z,97054.02
2019-05-25T10:14:08.660Z,97055.93
2019-05-25T10:16:38.201Z,97053.64
2019-05-25T10:19:07.629Z,97050.63
2019-05-25T10:21:39.426Z,97053.52
2019-05-25T10:24:08.978Z,97051.33
2019-05-25T10:26:38.518Z,97041.95
2019-05-25T10:29:08.077Z,97039.36
2019-05-25T10:31:37.619Z,97043.55
2019-05-25T10:34:07.305Z,97039.75
2019-05-25T10:36:36.801Z,97035.97
2019-05-25T10:39:08.140Z,97038.25
2019-05-25T10:41:37.668Z,97044.95
2019-05-25T10:44:07.630Z,97041.42
2019-05-25T10:46:37.671Z,97042.27
2019-05-25T10:49:07.154Z,97031.01
2019-05-25T10:51:36.666Z,97030.19
2019-05-25T10:54:06.287Z,97028.52
2019-05-25T10:56:35.891Z,97025.01
2019-05-25T10:59:05.519Z,97026.39
2019-05-25T11:01:35.075Z,97025.47
2019-05-25T11:04:04.723Z,97019.70
2019-05-25T11:06:35.007Z,97011.03
2019-05-25T11:09:06.294Z,97014.26
2019-05-25T11:11:35.818Z,97011.05
2019-05-25T11:14:05.653Z,97011.14
2019-05-25T11:16:35.165Z,97003.46
2019-05-25T11:19:04.837Z,97007.11
2019-05-25T11:21:34.547Z,97008.04
2019-05-25T11:24:04.166Z,97002.59
2019-05-25T11:26:33.820Z,97004.74
2019-05-25T11:29:03.382Z,97002.69
2019-05-25T11:31:33.012Z,96997.20
2019-05-25T11:34:02.604Z,96996.69
2019-05-25T11:36:32.228Z,96987.52
2019-05-25T11:39:07.361Z,96988.81
2019-05-25T11:41:36.892Z,96993.48
2019-05-25T11:44:06.481Z,96990.80
2019-05-25T11:46:35.995Z,96994.22
2019-05-25T11:49:19.992Z,96988.86
2019-05-25T11:51:37.150Z,96985.73
2019-05-25T11:54:06.756Z,97000.93
2019-05-25T11:56:36.270Z,96996.50
2019-05-25T11:59:05.804Z,96993.89
2019-05-25T12:01:35.282Z,96989.98
2019-05-25T12:04:04.832Z,96992.79
2019-05-25T12:06:34.403Z,96989.27
2019-05-25T12:09:05.311Z,96985.53
2019-05-25T12:11:34.870Z,96986.88
2019-05-25T12:14:04.470Z,96986.27
2019-05-25T12:16:33.977Z,96983.05
2019-05-25T12:19:03.500Z,96985.66
2019-05-25T12:21:32.950Z,96983.57
2019-05-25T12:24:02.501Z,96977.80
2019-05-25T12:26:31.964Z,96981.92
2019-05-25T12:29:01.463Z,96982.34
2019-05-25T12:31:31.253Z,96981.42
2019-05-25T12:34:04.233Z,96984.83
2019-05-25T12:36:33.711Z,96994.83
2019-05-25T12:39:04.296Z,96990.73
2019-05-25T12:41:33.823Z,96993.28
2019-05-25T12:44:03.314Z,96992.58
2019-05-25T12:46:32.834Z,96997.16
2019-05-25T12:49:02.573Z,96990.92
2019-05-25T12:51:32.061Z,96994.58
2019-05-25T12:54:01.658Z,97000.95
2019-05-25T12:56:31.189Z,96998.16
2019-05-25T12:59:01.079Z,97004.61
2019-05-25T13:01:30.723Z,97009.38
2019-05-25T13:04:00.318Z,97002.47
2019-05-25T13:06:30.029Z,97003.20
2019-05-25T13:08:59.646Z,97003.09
2019-05-25T13:11:32.270Z,97006.69
2019-05-25T13:14:13.759Z,97007.41
2019-05-25T13:16:33.261Z,97006.14
2019-05-25T13:19:02.898Z,97003.05
2019-05-25T13:21:32.565Z,97008.01
2019-05-25T13:24:02.185Z,97001.22
2019-05-25T13:26:31.864Z,97002.69
2019-05-25T13:29:01.630Z,97000.34
2019-05-25T13:31:31.279Z,96998.19
2019-05-25T13:34:00.902Z,96994.05
2019-05-25T13:36:30.555Z,96990.67
2019-05-25T13:39:00.175Z,96990.09
2019-05-25T13:41:29.958Z,96987.12
2019-05-25T13:43:59.525Z,96991.12
2019-05-25T13:46:29.371Z,96982.66
2019-05-25T13:48:59.131Z,96987.09
2019-05-25T13:51:28.753Z,96984.61
2019-05-25T13:53:58.357Z,96984.39
2019-05-25T13:56:28.005Z,96994.44
2019-05-25T13:58:57.616Z,96984.01
2019-05-25T14:01:28.668Z,97000.92
2019-05-25T14:03:58.562Z,97001.88
2019-05-25T14:06:28.212Z,96996.80
2019-05-25T14:08:58.189Z,97002.16
2019-05-25T14:11:27.803Z,97006.49
2019-05-25T14:13:57.554Z,97000.41
2019-05-25T14:16:27.269Z,97007.63
2019-05-25T14:18:56.856Z,97012.58
2019-05-25T14:21:26.457Z,97013.09
2019-05-25T14:23:56.074Z,97017.02
2019-05-25T14:26:25.642Z,97014.44
2019-05-25T14:28:55.201Z,97021.46
2019-05-25T14:31:24.929Z,97023.23
2019-05-25T14:33:54.458Z,97021.45
2019-05-25T14:36:24.085Z,97023.23
2019-05-25T14:38:53.627Z,97009.80
2019-05-25T14:41:23.200Z,97012.17
2019-05-25T14:43:52.783Z,97002.59
2019-05-25T14:46:27.835Z,97004.39
2019-05-25T14:48:53.748Z,97006.01
2019-05-25T14:51:23.326Z,97003.19
2019-05-25T14:53:53.003Z,96999.19
2019-05-25T14:56:22.564Z,97003.94
2019-05-25T14:58:52.435Z,97001.07
2019-05-25T15:01:21.998Z,97005.98
2019-05-25T15:03:51.640Z,97000.35
2019-05-25T15:06:21.565Z,97003.53
2019-05-25T15:08:51.202Z,97000.02
2019-05-25T15:11:21.220Z,96989.89
2019-05-25T15:13:51.041Z,96992.72
2019-05-25T15:16:20.646Z,96987.95
2019-05-25T15:18:50.186Z,96979.38
2019-05-25T15:21:21.469Z,96977.44
2019-05-25T15:23:51.038Z,96971.91
2019-05-25T15:26:20.562Z,96974.83
2019-05-25T15:28:50.199Z,96966.90
2019-05-25T15:31:19.761Z,96970.61
2019-05-25T15:33:49.358Z,96965.25
2019-05-25T15:36:19.150Z,96973.71
2019-05-25T15:38:48.863Z,96971.31
2019-05-25T15:41:18.439Z,96968.00
2019-05-25T15:43:48.105Z,96975.64
2019-05-25T15:46:17.717Z,96973.26
2019-05-25T15:48:47.345Z,96972.53
2019-05-25T15:51:16.995Z,96974.29
2019-05-25T15:53:46.634Z,96976.36
2019-05-25T15:56:16.291Z,96977.80
2019-05-25T15:58:45.855Z,96982.96
2019-05-25T16:01:15.580Z,96975.95
2019-05-25T16:03:45.314Z,96980.48
2019-05-25T16:06:15.037Z,96978.92
2019-05-25T16:08:44.622Z,96978.32
2019-05-25T16:11:14.282Z,96981.59
2019-05-25T16:13:43.922Z,96978.78
2019-05-25T16:16:13.563Z,96979.47
2019-05-25T16:18:43.124Z,96973.53
2019-05-25T16:21:12.964Z,96975.55
2019-05-25T16:23:42.597Z,96975.37
2019-05-25T16:26:12.140Z,96985.27
2019-05-25T16:28:41.747Z,96984.20
2019-05-25T16:31:11.419Z,96988.78
2019-05-25T16:33:41.018Z,96990.85
2019-05-25T16:36:10.610Z,96986.52
2019-05-25T16:38:40.243Z,96986.68
2019-05-25T16:41:09.839Z,96994.45
2019-05-25T16:43:39.502Z,97002.16
2019-05-25T16:46:09.155Z,96997.70
2019-05-25T16:48:38.765Z,96996.36
2019-05-25T16:51:08.383Z,97008.67
2019-05-25T16:53:37.929Z,97000.01
2019-05-25T16:56:07.447Z,97004.96
2019-05-25T16:58:37.068Z,97011.14
2019-05-25T17:01:06.616Z,97020.03
2019-05-25T17:03:36.305Z,97030.36
2019-05-25T17:06:05.955Z,97035.27
2019-05-25T17:08:35.484Z,97026.12
2019-05-25T17:11:05.506Z,97041.69
2019-05-25T17:13:35.038Z,97040.87
2019-05-25T17:16:04.653Z,97041.37
2019-05-25T17:18:34.169Z,97043.12
2019-05-25T17:21:03.766Z,97039.13
2019-05-25T17:23:33.364Z,97040.06
2019-05-25T17:26:03.207Z,97043.27
2019-05-25T17:28:32.752Z,97047.94
2019-05-25T17:31:02.351Z,97049.72
2019-05-25T17:33:45.587Z,97059.42
2019-05-25T17:36:03.248Z,97051.58
2019-05-25T17:38:32.845Z,97056.20
2019-05-25T17:41:02.460Z,97062.41
2019-05-25T17:43:32.086Z,97061.92
2019-05-25T17:46:01.585Z,97051.98
2019-05-25T17:48:31.528Z,97056.78
2019-05-25T17:51:01.237Z,97052.34
2019-05-25T17:53:30.796Z,97062.20
2019-05-25T17:56:00.735Z,97056.02
2019-05-25T17:58:30.440Z,97060.98
2019-05-25T18:01:00.002Z,97058.06
2019-05-25T18:03:29.695Z,97066.22
2019-05-25T18:05:59.313Z,97061.77
2019-05-25T18:08:28.909Z,97059.06
2019-05-25T18:10:59.161Z,97060.63
2019-05-25T18:13:29.304Z,97059.77
2019-05-25T18:15:58.970Z,97064.19
2019-05-25T18:18:28.708Z,97065.49
2019-05-25T18:20:58.299Z,97062.86
2019-05-25T18:23:27.946Z,97065.81
2019-05-25T18:25:57.661Z,97064.48
2019-05-25T18:28:27.329Z,97058.80
2019-05-25T18:30:57.058Z,97060.34
2019-05-25T18:33:26.760Z,97068.26
2019-05-25T18:35:56.449Z,97070.94
2019-05-25T18:38:26.120Z,97067.31
2019-05-25T18:40:55.815Z,97067.19
2019-05-25T18:43:25.542Z,97067.70
2019-05-25T18:45:55.293Z,97075.62
2019-05-25T18:48:24.925Z,97074.16
2019-05-25T18:50:54.584Z,97085.26
2019-05-25T18:53:24.276Z,97082.97
2019-05-25T18:55:53.826Z,97080.37
2019-05-25T18:58:23.492Z,97076.23
2019-05-25T19:00:53.368Z,97080.32
2019-05-25T19:03:23.000Z,97084.22
2019-05-25T19:05:52.968Z,97077.59
2019-05-25T19:08:22.752Z,97081.08
2019-05-25T19:10:52.471Z,97084.97
2019-05-25T19:13:22.093Z,97092.38
2019-05-25T19:15:51.733Z,97093.30
2019-05-25T19:18:21.310Z,97094.58
2019-05-25T19:20:50.922Z,97102.16
2019-05-25T19:23:20.539Z,97110.24
2019-05-25T19:25:50.194Z,97116.80
2019-05-25T19:28:19.828Z,97122.02
2019-05-25T19:30:49.421Z,97120.80
2019-05-25T19:33:18.910Z,97124.81
2019-05-25T19:35:48.347Z,97125.12
2019-05-25T19:38:17.716Z,97129.24
2019-05-25T19:40:47.163Z,97134.92
2019-05-25T19:43:16.620Z,97142.98
2019-05-25T19:45:47.376Z,97146.07
2019-05-25T19:48:17.144Z,97149.48
2019-05-25T19:50:46.750Z,97159.56
2019-05-25T19:53:16.179Z,97163.45
2019-05-25T19:55:45.607Z,97158.50
2019-05-25T19:58:14.979Z,97155.98
2019-05-25T20:00:44.476Z,97156.91
2019-05-25T20:03:14.040Z,97160.84
2019-05-25T20:05:43.907Z,97166.52
2019-05-25T20:08:13.303Z,97169.69
2019-05-25T20:10:42.679Z,97167.38
2019-05-25T20:13:12.046Z,97165.80
2019-05-25T20:15:41.471Z,97181.58
2019-05-25T20:18:10.939Z,97179.69
2019-05-25T20:20:40.332Z,97182.09
2019-05-25T20:23:09.722Z,97175.72
2019-05-25T20:25:39.100Z,97184.34
2019-05-25T20:28:08.532Z,97180.09
2019-05-25T20:30:37.944Z,97177.09
2019-05-25T20:33:07.337Z,97171.91
2019-05-25T20:35:36.793Z,97176.59
2019-05-25T20:38:06.194Z,97180.45
2019-05-25T20:40:35.737Z,97185.11
2019-05-25T20:43:05.077Z,97180.59
2019-05-25T20:45:34.496Z,97189.76
2019-05-25T20:48:03.954Z,97179.63
2019-05-25T20:50:33.792Z,97183.72
2019-05-25T20:53:03.254Z,97186.92
2019-05-25T20:55:32.693Z,97176.76
2019-05-25T20:58:02.113Z,97173.55
2019-05-25T21:00:31.672Z,97172.87
2019-05-25T21:03:06.597Z,97175.54
2019-05-25T21:05:48.509Z,97180.05
2019-05-25T21:08:03.518Z,97191.72
2019-05-25T21:10:33.053Z,97195.93
2019-05-25T21:13:02.539Z,97196.79
2019-05-25T21:15:31.983Z,97196.25
2019-05-25T21:18:01.460Z,97194.04
2019-05-25T21:20:30.916Z,97192.38
2019-05-25T21:23:00.419Z,97188.30
2019-05-25T21:25:29.954Z,97195.72
2019-05-25T21:27:59.483Z,97202.16
2019-05-25T21:30:28.939Z,97204.95
2019-05-25T21:32:58.339Z,97206.44
2019-05-25T21:35:27.744Z,97206.56
2019-05-25T21:37:57.251Z,97205.23
2019-05-25T21:40:26.947Z,97213.35
2019-05-25T21:42:56.454Z,97211.90
2019-05-25T21:45:25.925Z,97215.25
2019-05-25T21:47:56.528Z,97219.25
2019-05-25T21:50:26.127Z,97219.42
2019-05-25T21:52:55.526Z,97218.92
2019-05-25T21:55:24.917Z,97222.09
2019-05-25T21:57:54.346Z,97226.59
2019-05-25T22:00:27.886Z,97220.78
2019-05-25T22:02:57.400Z,97224.45
2019-05-25T22:05:30.573Z,97225.13
2019-05-25T22:07:57.964Z,97230.46
2019-05-25T22:10:27.440Z,97227.99
2019-05-25T22:12:56.829Z,97227.69
2019-05-25T22:15:26.306Z,97238.02
2019-05-25T22:17:55.907Z,97234.23
2019-05-25T22:20:25.299Z,97237.29
2019-05-25T22:22:54.765Z,97242.84
2019-05-25T22:25:24.216Z,97245.92
2019-05-25T22:27:53.720Z,97244.59
2019-05-25T22:30:23.182Z,97240.25
2019-05-25T22:32:52.644Z,97235.47
2019-05-25T22:35:22.160Z,97245.50
2019-05-25T22:37:51.618Z,97238.47
2019-05-25T22:40:21.411Z,97242.29
2019-05-25T22:42:50.781Z,97239.12
2019-05-25T22:45:20.252Z,97239.14
2019-05-25T22:47:49.719Z,97244.01
2019-05-25T22:50:19.501Z,97239.59
2019-05-25T22:52:48.914Z,97243.80
2019-05-25T22:55:18.420Z,97242.77
2019-05-25T22:57:47.894Z,97236.85
2019-05-25T23:00:18.061Z,97236.52
2019-05-25T23:02:47.530Z,97238.34
2019-05-25T23:05:16.905Z,97236.02
2019-05-25T23:07:46.323Z,97237.99
2019-05-25T23:10:15.990Z,97230.84
2019-05-25T23:12:45.373Z,97233.34
2019-05-25T23:15:14.825Z,97228.53
2019-05-25T23:17:44.237Z,97228.20
2019-05-25T23:20:13.728Z,97227.34
2019-05-25T23:22:43.078Z,97232.58
2019-05-25T23:25:12.551Z,97225.95
2019-05-25T23:27:41.941Z,97219.13
2019-05-25T23:30:11.580Z,97224.58
2019-05-25T23:32:41.200Z,97223.35
2019-05-25T23:35:11.348Z,97217.23
2019-05-25T23:37:40.800Z,97222.11
2019-05-25T23:40:10.467Z,97217.23
2019-05-25T23:42:39.982Z,97221.63
2019-05-25T23:45:09.723Z,97217.95
2019-05-25T23:47:39.143Z,97211.50
2019-05-25T23:50:09.196Z,97219.06
2019-05-25T23:52:38.679Z,97222.61
2019-05-25T23:55:09.633Z,97224.83
2019-05-25T23:57:39.404Z,97220.23
